sensor_id;sensor_type;location;lat;lon;timestamp;P1;durP1;ratioP1;P2;durP2;ratioP2
73337;SDS011;61575;49.908;35.556;2024-01-06T00:01:47;20.10;;;8.87;;
73337;SDS011;61575;49.908;35.556;2024-01-06T00:04:49;24.10;;;9.40;;
73337;SDS011;61575;49.908;35.556;2024-01-06T00:07:51;23.43;;;8.53;;
73337;SDS011;61575;49.908;35.556;2024-01-06T00:10:53;25.77;;;9.70;;
73337;SDS011;61575;49.908;35.556;2024-01-06T00:13:56;30.08;;;10.02;;
73337;SDS011;61575;49.908;35.556;2024-01-06T00:16:58;26.58;;;9.75;;
73337;SDS011;61575;49.908;35.556;2024-01-06T00:20:00;25.65;;;10.68;;
73337;SDS011;61575;49.908;35.556;2024-01-06T00:23:04;24.40;;;9.13;;
73337;SDS011;61575;49.908;35.556;2024-01-06T00:26:06;23.20;;;7.93;;
73337;SDS011;61575;49.908;35.556;2024-01-06T00:29:10;26.23;;;9.27;;
73337;SDS011;61575;49.908;35.556;2024-01-06T00:32:12;28.17;;;11.02;;
73337;SDS011;61575;49.908;35.556;2024-01-06T00:35:14;25.03;;;9.70;;
73337;SDS011;61575;49.908;35.556;2024-01-06T00:38:16;26.55;;;9.85;;
73337;SDS011;61575;49.908;35.556;2024-01-06T00:41:18;28.23;;;11.30;;
73337;SDS011;61575;49.908;35.556;2024-01-06T00:44:20;27.60;;;9.97;;
73337;SDS011;61575;49.908;35.556;2024-01-06T00:47:22;26.90;;;10.47;;
73337;SDS011;61575;49.908;35.556;2024-01-06T00:50:26;26.08;;;10.23;;
73337;SDS011;61575;49.908;35.556;2024-01-06T00:53:28;26.15;;;9.80;;
73337;SDS011;61575;49.908;35.556;2024-01-06T00:56:30;28.27;;;9.80;;
73337;SDS011;61575;49.908;35.556;2024-01-06T00:59:32;25.27;;;8.93;;
73337;SDS011;61575;49.908;35.556;2024-01-06T01:02:34;29.00;;;10.87;;
73337;SDS011;61575;49.908;35.556;2024-01-06T01:05:39;29.67;;;10.70;;
73337;SDS011;61575;49.908;35.556;2024-01-06T01:08:41;28.93;;;10.70;;
73337;SDS011;61575;49.908;35.556;2024-01-06T01:11:44;24.60;;;8.32;;
73337;SDS011;61575;49.908;35.556;2024-01-06T01:14:46;33.13;;;11.27;;
73337;SDS011;61575;49.908;35.556;2024-01-06T01:17:48;26.55;;;10.10;;
73337;SDS011;61575;49.908;35.556;2024-01-06T01:20:50;32.05;;;11.77;;
73337;SDS011;61575;49.908;35.556;2024-01-06T01:23:52;32.88;;;10.80;;
73337;SDS011;61575;49.908;35.556;2024-01-06T01:26:54;29.35;;;11.10;;
73337;SDS011;61575;49.908;35.556;2024-01-06T01:29:56;32.38;;;11.93;;
73337;SDS011;61575;49.908;35.556;2024-01-06T01:32:58;25.80;;;8.27;;
73337;SDS011;61575;49.908;35.556;2024-01-06T01:36:01;26.38;;;9.27;;
73337;SDS011;61575;49.908;35.556;2024-01-06T01:39:03;34.88;;;10.55;;
73337;SDS011;61575;49.908;35.556;2024-01-06T01:42:06;30.00;;;10.63;;
73337;SDS011;61575;49.908;35.556;2024-01-06T01:45:08;35.20;;;12.18;;
73337;SDS011;61575;49.908;35.556;2024-01-06T01:48:13;32.35;;;10.35;;
73337;SDS011;61575;49.908;35.556;2024-01-06T01:51:16;27.73;;;10.43;;
73337;SDS011;61575;49.908;35.556;2024-01-06T01:54:20;32.58;;;10.60;;
73337;SDS011;61575;49.908;35.556;2024-01-06T01:57:23;24.10;;;8.50;;
73337;SDS011;61575;49.908;35.556;2024-01-06T02:00:26;37.25;;;11.50;;
73337;SDS011;61575;49.908;35.556;2024-01-06T02:03:30;36.58;;;11.85;;
73337;SDS011;61575;49.908;35.556;2024-01-06T02:06:33;28.83;;;11.35;;
73337;SDS011;61575;49.908;35.556;2024-01-06T02:09:36;37.60;;;11.70;;
73337;SDS011;61575;49.908;35.556;2024-01-06T02:12:38;31.88;;;10.48;;
73337;SDS011;61575;49.908;35.556;2024-01-06T02:15:40;30.73;;;10.02;;
73337;SDS011;61575;49.908;35.556;2024-01-06T02:18:42;28.63;;;9.27;;
73337;SDS011;61575;49.908;35.556;2024-01-06T02:21:48;23.60;;;7.97;;
73337;SDS011;61575;49.908;35.556;2024-01-06T02:24:52;29.95;;;10.35;;
73337;SDS011;61575;49.908;35.556;2024-01-06T02:27:55;26.80;;;9.80;;
73337;SDS011;61575;49.908;35.556;2024-01-06T02:30:57;32.00;;;10.52;;
73337;SDS011;61575;49.908;35.556;2024-01-06T02:33:59;29.63;;;11.02;;
73337;SDS011;61575;49.908;35.556;2024-01-06T02:37:02;27.67;;;9.48;;
73337;SDS011;61575;49.908;35.556;2024-01-06T02:40:04;21.05;;;7.68;;
73337;SDS011;61575;49.908;35.556;2024-01-06T02:43:06;31.13;;;10.50;;
73337;SDS011;61575;49.908;35.556;2024-01-06T02:46:08;24.47;;;9.47;;
73337;SDS011;61575;49.908;35.556;2024-01-06T02:49:11;24.23;;;8.67;;
73337;SDS011;61575;49.908;35.556;2024-01-06T02:52:13;30.75;;;10.65;;
73337;SDS011;61575;49.908;35.556;2024-01-06T02:55:15;30.17;;;9.77;;
73337;SDS011;61575;49.908;35.556;2024-01-06T02:58:17;21.02;;;7.22;;
73337;SDS011;61575;49.908;35.556;2024-01-06T03:01:19;20.93;;;6.37;;
73337;SDS011;61575;49.908;35.556;2024-01-06T03:04:21;26.90;;;9.17;;
73337;SDS011;61575;49.908;35.556;2024-01-06T03:07:23;24.27;;;7.53;;
73337;SDS011;61575;49.908;35.556;2024-01-06T03:10:26;25.02;;;8.30;;
73337;SDS011;61575;49.908;35.556;2024-01-06T03:13:28;30.73;;;9.88;;
73337;SDS011;61575;49.908;35.556;2024-01-06T03:16:30;29.70;;;9.77;;
73337;SDS011;61575;49.908;35.556;2024-01-06T03:19:32;23.57;;;8.10;;
73337;SDS011;61575;49.908;35.556;2024-01-06T03:22:34;19.65;;;6.82;;
73337;SDS011;61575;49.908;35.556;2024-01-06T03:25:37;26.52;;;8.40;;
73337;SDS011;61575;49.908;35.556;2024-01-06T03:28:39;26.97;;;8.67;;
73337;SDS011;61575;49.908;35.556;2024-01-06T03:31:42;20.40;;;7.57;;
73337;SDS011;61575;49.908;35.556;2024-01-06T03:34:44;22.40;;;7.95;;
73337;SDS011;61575;49.908;35.556;2024-01-06T03:37:47;22.58;;;8.32;;
73337;SDS011;61575;49.908;35.556;2024-01-06T03:40:49;21.90;;;8.18;;
73337;SDS011;61575;49.908;35.556;2024-01-06T03:43:51;28.67;;;9.03;;
73337;SDS011;61575;49.908;35.556;2024-01-06T03:46:53;29.00;;;8.97;;
73337;SDS011;61575;49.908;35.556;2024-01-06T03:49:55;23.10;;;8.27;;
73337;SDS011;61575;49.908;35.556;2024-01-06T03:52:57;27.30;;;8.90;;
73337;SDS011;61575;49.908;35.556;2024-01-06T03:55:59;26.63;;;8.80;;
73337;SDS011;61575;49.908;35.556;2024-01-06T04:02:04;30.27;;;9.90;;
73337;SDS011;61575;49.908;35.556;2024-01-06T04:05:06;35.27;;;11.17;;
73337;SDS011;61575;49.908;35.556;2024-01-06T04:08:08;23.90;;;9.73;;
73337;SDS011;61575;49.908;35.556;2024-01-06T04:11:10;25.33;;;9.57;;
73337;SDS011;61575;49.908;35.556;2024-01-06T04:14:12;17.93;;;6.20;;
73337;SDS011;61575;49.908;35.556;2024-01-06T04:17:14;24.43;;;8.67;;
73337;SDS011;61575;49.908;35.556;2024-01-06T04:20:16;30.20;;;9.50;;
73337;SDS011;61575;49.908;35.556;2024-01-06T04:23:18;25.40;;;8.77;;
73337;SDS011;61575;49.908;35.556;2024-01-06T04:26:24;21.88;;;8.15;;
73337;SDS011;61575;49.908;35.556;2024-01-06T04:29:26;23.15;;;8.32;;
73337;SDS011;61575;49.908;35.556;2024-01-06T04:32:28;25.40;;;8.40;;
73337;SDS011;61575;49.908;35.556;2024-01-06T04:35:30;28.42;;;8.82;;
73337;SDS011;61575;49.908;35.556;2024-01-06T04:38:32;22.03;;;8.63;;
73337;SDS011;61575;49.908;35.556;2024-01-06T04:41:34;30.77;;;9.07;;
73337;SDS011;61575;49.908;35.556;2024-01-06T04:44:36;21.73;;;6.80;;
73337;SDS011;61575;49.908;35.556;2024-01-06T04:47:38;30.20;;;9.73;;
73337;SDS011;61575;49.908;35.556;2024-01-06T04:50:41;26.97;;;9.17;;
73337;SDS011;61575;49.908;35.556;2024-01-06T04:53:43;23.10;;;8.07;;
73337;SDS011;61575;49.908;35.556;2024-01-06T04:56:45;27.27;;;9.33;;
73337;SDS011;61575;49.908;35.556;2024-01-06T04:59:47;29.00;;;10.50;;
73337;SDS011;61575;49.908;35.556;2024-01-06T05:02:49;29.48;;;10.15;;
73337;SDS011;61575;49.908;35.556;2024-01-06T05:05:51;29.92;;;10.00;;
73337;SDS011;61575;49.908;35.556;2024-01-06T05:08:53;23.77;;;8.43;;
73337;SDS011;61575;49.908;35.556;2024-01-06T05:11:55;26.93;;;9.93;;
73337;SDS011;61575;49.908;35.556;2024-01-06T05:14:57;36.55;;;13.63;;
73337;SDS011;61575;49.908;35.556;2024-01-06T05:17:59;29.10;;;10.95;;
73337;SDS011;61575;49.908;35.556;2024-01-06T05:21:01;36.30;;;11.80;;
73337;SDS011;61575;49.908;35.556;2024-01-06T05:24:04;28.58;;;10.27;;
73337;SDS011;61575;49.908;35.556;2024-01-06T05:27:07;24.05;;;8.23;;
73337;SDS011;61575;49.908;35.556;2024-01-06T05:30:12;28.85;;;9.35;;
73337;SDS011;61575;49.908;35.556;2024-01-06T05:33:15;20.05;;;7.10;;
73337;SDS011;61575;49.908;35.556;2024-01-06T05:36:21;29.10;;;9.88;;
73337;SDS011;61575;49.908;35.556;2024-01-06T05:39:23;29.27;;;11.25;;
73337;SDS011;61575;49.908;35.556;2024-01-06T05:42:25;33.60;;;10.70;;
73337;SDS011;61575;49.908;35.556;2024-01-06T05:45:27;55.40;;;15.50;;
73337;SDS011;61575;49.908;35.556;2024-01-06T05:48:31;43.00;;;14.65;;
73337;SDS011;61575;49.908;35.556;2024-01-06T05:51:34;35.35;;;12.43;;
73337;SDS011;61575;49.908;35.556;2024-01-06T05:54:36;35.25;;;12.52;;
73337;SDS011;61575;49.908;35.556;2024-01-06T05:57:42;31.13;;;12.57;;
73337;SDS011;61575;49.908;35.556;2024-01-06T06:00:44;31.13;;;11.27;;
73337;SDS011;61575;49.908;35.556;2024-01-06T06:03:47;31.02;;;11.13;;
73337;SDS011;61575;49.908;35.556;2024-01-06T06:06:51;30.02;;;10.95;;
73337;SDS011;61575;49.908;35.556;2024-01-06T06:09:54;28.17;;;11.75;;
73337;SDS011;61575;49.908;35.556;2024-01-06T06:12:56;37.17;;;12.25;;
73337;SDS011;61575;49.908;35.556;2024-01-06T06:15:58;28.17;;;9.57;;
73337;SDS011;61575;49.908;35.556;2024-01-06T06:19:00;23.77;;;7.78;;
73337;SDS011;61575;49.908;35.556;2024-01-06T06:22:03;30.52;;;10.68;;
73337;SDS011;61575;49.908;35.556;2024-01-06T06:25:05;35.92;;;13.40;;
73337;SDS011;61575;49.908;35.556;2024-01-06T06:28:08;31.85;;;12.18;;
73337;SDS011;61575;49.908;35.556;2024-01-06T06:31:16;26.33;;;9.70;;
73337;SDS011;61575;49.908;35.556;2024-01-06T06:34:19;22.52;;;7.75;;
73337;SDS011;61575;49.908;35.556;2024-01-06T06:37:21;25.70;;;9.23;;
73337;SDS011;61575;49.908;35.556;2024-01-06T06:40:23;23.90;;;9.67;;
73337;SDS011;61575;49.908;35.556;2024-01-06T06:43:25;24.60;;;9.03;;
73337;SDS011;61575;49.908;35.556;2024-01-06T06:46:27;25.65;;;9.55;;
73337;SDS011;61575;49.908;35.556;2024-01-06T06:49:30;25.60;;;9.67;;
73337;SDS011;61575;49.908;35.556;2024-01-06T06:52:32;23.23;;;9.80;;
73337;SDS011;61575;49.908;35.556;2024-01-06T06:55:34;23.23;;;8.83;;
73337;SDS011;61575;49.908;35.556;2024-01-06T06:58:36;22.58;;;7.30;;
73337;SDS011;61575;49.908;35.556;2024-01-06T07:01:38;23.07;;;8.23;;
73337;SDS011;61575;49.908;35.556;2024-01-06T07:04:40;27.93;;;9.93;;
73337;SDS011;61575;49.908;35.556;2024-01-06T07:07:42;27.77;;;9.53;;
73337;SDS011;61575;49.908;35.556;2024-01-06T07:10:48;22.67;;;8.93;;
73337;SDS011;61575;49.908;35.556;2024-01-06T07:13:50;26.37;;;9.40;;
73337;SDS011;61575;49.908;35.556;2024-01-06T07:16:52;21.23;;;8.67;;
73337;SDS011;61575;49.908;35.556;2024-01-06T07:19:54;26.23;;;9.23;;
73337;SDS011;61575;49.908;35.556;2024-01-06T07:22:56;25.50;;;8.83;;
73337;SDS011;61575;49.908;35.556;2024-01-06T07:25:58;24.30;;;9.13;;
73337;SDS011;61575;49.908;35.556;2024-01-06T07:29:00;21.50;;;8.57;;
73337;SDS011;61575;49.908;35.556;2024-01-06T07:32:04;27.43;;;10.63;;
73337;SDS011;61575;49.908;35.556;2024-01-06T07:35:07;26.13;;;9.85;;
73337;SDS011;61575;49.908;35.556;2024-01-06T07:38:10;23.75;;;9.80;;
73337;SDS011;61575;49.908;35.556;2024-01-06T07:41:12;25.30;;;9.60;;
73337;SDS011;61575;49.908;35.556;2024-01-06T07:44:14;24.67;;;9.10;;
73337;SDS011;61575;49.908;35.556;2024-01-06T07:47:17;22.23;;;8.50;;
73337;SDS011;61575;49.908;35.556;2024-01-06T07:50:19;27.43;;;9.03;;
73337;SDS011;61575;49.908;35.556;2024-01-06T07:53:21;22.23;;;8.15;;
73337;SDS011;61575;49.908;35.556;2024-01-06T07:56:23;25.35;;;8.15;;
73337;SDS011;61575;49.908;35.556;2024-01-06T07:59:26;21.38;;;7.80;;
73337;SDS011;61575;49.908;35.556;2024-01-06T08:02:28;26.73;;;11.67;;
73337;SDS011;61575;49.908;35.556;2024-01-06T08:05:30;36.33;;;16.00;;
73337;SDS011;61575;49.908;35.556;2024-01-06T08:08:32;27.10;;;11.17;;
73337;SDS011;61575;49.908;35.556;2024-01-06T08:11:34;32.33;;;12.73;;
73337;SDS011;61575;49.908;35.556;2024-01-06T08:14:36;30.60;;;13.27;;
73337;SDS011;61575;49.908;35.556;2024-01-06T08:17:38;36.80;;;16.57;;
73337;SDS011;61575;49.908;35.556;2024-01-06T08:20:42;43.47;;;19.23;;
73337;SDS011;61575;49.908;35.556;2024-01-06T08:23:44;39.83;;;18.07;;
73337;SDS011;61575;49.908;35.556;2024-01-06T08:29:49;23.92;;;8.60;;
73337;SDS011;61575;49.908;35.556;2024-01-06T08:32:51;19.98;;;8.95;;
73337;SDS011;61575;49.908;35.556;2024-01-06T08:35:54;23.42;;;9.43;;
73337;SDS011;61575;49.908;35.556;2024-01-06T08:38:56;27.80;;;9.70;;
73337;SDS011;61575;49.908;35.556;2024-01-06T08:41:58;31.35;;;12.80;;
73337;SDS011;61575;49.908;35.556;2024-01-06T08:45:03;26.35;;;9.90;;
73337;SDS011;61575;49.908;35.556;2024-01-06T08:48:06;22.15;;;8.85;;
73337;SDS011;61575;49.908;35.556;2024-01-06T08:51:08;24.33;;;8.95;;
73337;SDS011;61575;49.908;35.556;2024-01-06T08:54:10;25.73;;;9.70;;
73337;SDS011;61575;49.908;35.556;2024-01-06T08:57:12;21.97;;;8.50;;
73337;SDS011;61575;49.908;35.556;2024-01-06T09:00:15;21.83;;;6.90;;
73337;SDS011;61575;49.908;35.556;2024-01-06T09:03:17;20.35;;;7.90;;
73337;SDS011;61575;49.908;35.556;2024-01-06T09:06:20;25.52;;;12.00;;
73337;SDS011;61575;49.908;35.556;2024-01-06T09:09:22;20.37;;;9.67;;
73337;SDS011;61575;49.908;35.556;2024-01-06T09:12:25;23.85;;;8.93;;
73337;SDS011;61575;49.908;35.556;2024-01-06T09:15:27;22.45;;;9.15;;
73337;SDS011;61575;49.908;35.556;2024-01-06T09:18:29;25.35;;;9.80;;
73337;SDS011;61575;49.908;35.556;2024-01-06T09:21:31;19.10;;;7.57;;
73337;SDS011;61575;49.908;35.556;2024-01-06T09:24:34;19.83;;;7.17;;
73337;SDS011;61575;49.908;35.556;2024-01-06T09:27:37;17.58;;;7.60;;
73337;SDS011;61575;49.908;35.556;2024-01-06T09:30:39;41.78;;;22.00;;
73337;SDS011;61575;49.908;35.556;2024-01-06T09:33:41;23.58;;;10.35;;
73337;SDS011;61575;49.908;35.556;2024-01-06T09:36:44;12.73;;;5.57;;
73337;SDS011;61575;49.908;35.556;2024-01-06T09:39:46;13.47;;;5.90;;
73337;SDS011;61575;49.908;35.556;2024-01-06T09:42:52;22.35;;;9.45;;
73337;SDS011;61575;49.908;35.556;2024-01-06T09:46:04;15.05;;;5.95;;
73337;SDS011;61575;49.908;35.556;2024-01-06T09:49:12;14.48;;;4.90;;
73337;SDS011;61575;49.908;35.556;2024-01-06T09:52:19;11.45;;;4.95;;
73337;SDS011;61575;49.908;35.556;2024-01-06T09:55:24;16.95;;;6.65;;
73337;SDS011;61575;49.908;35.556;2024-01-06T09:58:30;21.42;;;8.43;;
73337;SDS011;61575;49.908;35.556;2024-01-06T10:01:35;17.35;;;6.65;;
73337;SDS011;61575;49.908;35.556;2024-01-06T10:04:38;23.27;;;11.13;;
73337;SDS011;61575;49.908;35.556;2024-01-06T10:07:43;31.83;;;11.93;;
73337;SDS011;61575;49.908;35.556;2024-01-06T10:10:49;14.85;;;5.47;;
73337;SDS011;61575;49.908;35.556;2024-01-06T10:13:51;21.90;;;8.77;;
73337;SDS011;61575;49.908;35.556;2024-01-06T10:16:54;53.00;;;19.08;;
73337;SDS011;61575;49.908;35.556;2024-01-06T10:19:56;24.73;;;9.03;;
73337;SDS011;61575;49.908;35.556;2024-01-06T10:22:58;13.07;;;5.47;;
73337;SDS011;61575;49.908;35.556;2024-01-06T10:26:07;21.25;;;9.40;;
73337;SDS011;61575;49.908;35.556;2024-01-06T10:29:09;18.47;;;8.10;;
73337;SDS011;61575;49.908;35.556;2024-01-06T10:32:12;21.45;;;10.13;;
73337;SDS011;61575;49.908;35.556;2024-01-06T10:35:14;18.00;;;9.27;;
73337;SDS011;61575;49.908;35.556;2024-01-06T10:38:17;18.63;;;9.18;;
73337;SDS011;61575;49.908;35.556;2024-01-06T10:41:19;15.30;;;7.50;;
73337;SDS011;61575;49.908;35.556;2024-01-06T10:44:23;17.83;;;7.70;;
73337;SDS011;61575;49.908;35.556;2024-01-06T10:47:26;17.38;;;6.82;;
73337;SDS011;61575;49.908;35.556;2024-01-06T10:50:32;16.27;;;7.03;;
73337;SDS011;61575;49.908;35.556;2024-01-06T10:53:36;19.23;;;7.68;;
73337;SDS011;61575;49.908;35.556;2024-01-06T10:56:41;19.42;;;7.28;;
73337;SDS011;61575;49.908;35.556;2024-01-06T10:59:45;19.10;;;8.98;;
73337;SDS011;61575;49.908;35.556;2024-01-06T11:02:51;12.63;;;5.32;;
73337;SDS011;61575;49.908;35.556;2024-01-06T11:05:54;14.68;;;6.05;;
73337;SDS011;61575;49.908;35.556;2024-01-06T11:12:02;21.02;;;7.80;;
73337;SDS011;61575;49.908;35.556;2024-01-06T11:15:04;18.17;;;8.02;;
73337;SDS011;61575;49.908;35.556;2024-01-06T11:18:07;28.52;;;11.00;;
73337;SDS011;61575;49.908;35.556;2024-01-06T11:24:24;14.98;;;6.85;;
73337;SDS011;61575;49.908;35.556;2024-01-06T11:27:28;17.58;;;7.35;;
73337;SDS011;61575;49.908;35.556;2024-01-06T11:30:32;16.00;;;6.50;;
73337;SDS011;61575;49.908;35.556;2024-01-06T11:33:45;21.75;;;7.50;;
73337;SDS011;61575;49.908;35.556;2024-01-06T11:36:50;18.88;;;7.70;;
73337;SDS011;61575;49.908;35.556;2024-01-06T11:39:52;16.47;;;6.00;;
73337;SDS011;61575;49.908;35.556;2024-01-06T11:46:08;15.90;;;6.20;;
73337;SDS011;61575;49.908;35.556;2024-01-06T11:52:13;20.65;;;8.75;;
73337;SDS011;61575;49.908;35.556;2024-01-06T11:55:17;22.70;;;8.35;;
73337;SDS011;61575;49.908;35.556;2024-01-06T11:58:23;23.30;;;8.30;;
73337;SDS011;61575;49.908;35.556;2024-01-06T12:01:25;15.75;;;6.10;;
73337;SDS011;61575;49.908;35.556;2024-01-06T12:04:27;22.50;;;10.10;;
73337;SDS011;61575;49.908;35.556;2024-01-06T12:07:31;23.50;;;9.52;;
73337;SDS011;61575;49.908;35.556;2024-01-06T12:10:36;19.38;;;7.75;;
73337;SDS011;61575;49.908;35.556;2024-01-06T12:13:39;21.75;;;8.38;;
73337;SDS011;61575;49.908;35.556;2024-01-06T12:16:41;25.50;;;10.90;;
73337;SDS011;61575;49.908;35.556;2024-01-06T12:19:43;28.83;;;11.50;;
73337;SDS011;61575;49.908;35.556;2024-01-06T12:22:47;22.75;;;8.38;;
73337;SDS011;61575;49.908;35.556;2024-01-06T12:25:49;23.10;;;9.90;;
73337;SDS011;61575;49.908;35.556;2024-01-06T12:28:51;26.15;;;10.98;;
73337;SDS011;61575;49.908;35.556;2024-01-06T12:31:53;32.45;;;13.65;;
73337;SDS011;61575;49.908;35.556;2024-01-06T12:38:01;30.92;;;13.57;;
73337;SDS011;61575;49.908;35.556;2024-01-06T12:41:07;25.70;;;12.13;;
73337;SDS011;61575;49.908;35.556;2024-01-06T12:44:09;21.10;;;10.13;;
73337;SDS011;61575;49.908;35.556;2024-01-06T12:47:11;20.47;;;8.60;;
73337;SDS011;61575;49.908;35.556;2024-01-06T12:50:14;18.52;;;8.23;;
73337;SDS011;61575;49.908;35.556;2024-01-06T12:53:16;19.65;;;8.30;;
73337;SDS011;61575;49.908;35.556;2024-01-06T12:56:19;20.25;;;8.48;;
73337;SDS011;61575;49.908;35.556;2024-01-06T12:59:21;22.60;;;9.38;;
73337;SDS011;61575;49.908;35.556;2024-01-06T13:02:23;30.47;;;12.27;;
73337;SDS011;61575;49.908;35.556;2024-01-06T13:05:25;20.67;;;9.37;;
73337;SDS011;61575;49.908;35.556;2024-01-06T13:08:27;26.10;;;9.95;;
73337;SDS011;61575;49.908;35.556;2024-01-06T13:11:29;20.35;;;9.18;;
73337;SDS011;61575;49.908;35.556;2024-01-06T13:14:32;21.58;;;10.35;;
73337;SDS011;61575;49.908;35.556;2024-01-06T13:17:35;22.73;;;9.80;;
73337;SDS011;61575;49.908;35.556;2024-01-06T13:20:37;26.13;;;11.85;;
73337;SDS011;61575;49.908;35.556;2024-01-06T13:23:42;28.38;;;12.82;;
73337;SDS011;61575;49.908;35.556;2024-01-06T13:26:44;29.55;;;12.93;;
73337;SDS011;61575;49.908;35.556;2024-01-06T13:29:46;25.47;;;10.97;;
73337;SDS011;61575;49.908;35.556;2024-01-06T13:32:48;26.27;;;11.67;;
73337;SDS011;61575;49.908;35.556;2024-01-06T13:35:52;29.23;;;13.50;;
73337;SDS011;61575;49.908;35.556;2024-01-06T13:38:54;23.33;;;10.70;;
73337;SDS011;61575;49.908;35.556;2024-01-06T13:41:56;28.77;;;14.00;;
73337;SDS011;61575;49.908;35.556;2024-01-06T13:44:58;25.40;;;11.80;;
73337;SDS011;61575;49.908;35.556;2024-01-06T13:48:02;27.75;;;14.27;;
73337;SDS011;61575;49.908;35.556;2024-01-06T13:51:10;29.23;;;13.18;;
73337;SDS011;61575;49.908;35.556;2024-01-06T13:54:12;30.57;;;14.00;;
73337;SDS011;61575;49.908;35.556;2024-01-06T13:57:18;32.83;;;13.68;;
73337;SDS011;61575;49.908;35.556;2024-01-06T14:00:20;28.67;;;13.40;;
73337;SDS011;61575;49.908;35.556;2024-01-06T14:03:22;21.13;;;10.30;;
73337;SDS011;61575;49.908;35.556;2024-01-06T14:06:25;31.02;;;13.68;;
73337;SDS011;61575;49.908;35.556;2024-01-06T14:09:32;29.23;;;13.80;;
73337;SDS011;61575;49.908;35.556;2024-01-06T14:12:34;30.17;;;13.27;;
73337;SDS011;61575;49.908;35.556;2024-01-06T14:15:36;25.75;;;12.38;;
73337;SDS011;61575;49.908;35.556;2024-01-06T14:18:38;49.10;;;19.73;;
73337;SDS011;61575;49.908;35.556;2024-01-06T14:21:41;38.28;;;17.95;;
73337;SDS011;61575;49.908;35.556;2024-01-06T14:24:43;32.38;;;14.68;;
73337;SDS011;61575;49.908;35.556;2024-01-06T14:27:45;30.80;;;12.67;;
73337;SDS011;61575;49.908;35.556;2024-01-06T14:33:51;34.50;;;16.63;;
73337;SDS011;61575;49.908;35.556;2024-01-06T14:36:57;33.42;;;15.38;;
73337;SDS011;61575;49.908;35.556;2024-01-06T14:39:59;41.00;;;18.23;;
73337;SDS011;61575;49.908;35.556;2024-01-06T14:43:07;34.63;;;16.08;;
73337;SDS011;61575;49.908;35.556;2024-01-06T14:46:09;32.90;;;15.32;;
73337;SDS011;61575;49.908;35.556;2024-01-06T14:49:11;32.28;;;15.18;;
73337;SDS011;61575;49.908;35.556;2024-01-06T14:52:13;34.97;;;20.48;;
73337;SDS011;61575;49.908;35.556;2024-01-06T14:55:15;77.07;;;41.43;;
73337;SDS011;61575;49.908;35.556;2024-01-06T14:58:17;216.80;;;83.33;;
73337;SDS011;61575;49.908;35.556;2024-01-06T15:01:19;199.82;;;101.82;;
73337;SDS011;61575;49.908;35.556;2024-01-06T15:04:22;51.08;;;28.10;;
73337;SDS011;61575;49.908;35.556;2024-01-06T15:07:26;52.95;;;29.15;;
73337;SDS011;61575;49.908;35.556;2024-01-06T15:10:28;146.98;;;70.22;;
73337;SDS011;61575;49.908;35.556;2024-01-06T15:13:30;39.37;;;20.93;;
73337;SDS011;61575;49.908;35.556;2024-01-06T15:16:32;30.55;;;15.80;;
73337;SDS011;61575;49.908;35.556;2024-01-06T15:19:34;26.93;;;15.30;;
73337;SDS011;61575;49.908;35.556;2024-01-06T15:22:39;32.78;;;14.45;;
73337;SDS011;61575;49.908;35.556;2024-01-06T15:25:42;66.55;;;34.10;;
73337;SDS011;61575;49.908;35.556;2024-01-06T15:28:44;41.60;;;21.20;;
73337;SDS011;61575;49.908;35.556;2024-01-06T15:31:46;29.65;;;13.65;;
73337;SDS011;61575;49.908;35.556;2024-01-06T15:34:48;47.20;;;24.35;;
73337;SDS011;61575;49.908;35.556;2024-01-06T15:37:50;90.00;;;38.43;;
73337;SDS011;61575;49.908;35.556;2024-01-06T15:40:52;132.63;;;45.33;;
73337;SDS011;61575;49.908;35.556;2024-01-06T15:43:55;202.77;;;68.10;;
73337;SDS011;61575;49.908;35.556;2024-01-06T15:46:57;162.50;;;52.00;;
73337;SDS011;61575;49.908;35.556;2024-01-06T15:49:59;147.85;;;46.40;;
73337;SDS011;61575;49.908;35.556;2024-01-06T15:53:01;82.85;;;29.20;;
73337;SDS011;61575;49.908;35.556;2024-01-06T15:56:03;206.02;;;64.88;;
73337;SDS011;61575;49.908;35.556;2024-01-06T15:59:05;50.40;;;19.15;;
73337;SDS011;61575;49.908;35.556;2024-01-06T16:02:09;119.13;;;37.58;;
73337;SDS011;61575;49.908;35.556;2024-01-06T16:05:11;118.23;;;39.40;;
73337;SDS011;61575;49.908;35.556;2024-01-06T16:08:15;92.28;;;35.47;;
73337;SDS011;61575;49.908;35.556;2024-01-06T16:11:17;73.70;;;26.50;;
73337;SDS011;61575;49.908;35.556;2024-01-06T16:14:19;58.63;;;22.47;;
73337;SDS011;61575;49.908;35.556;2024-01-06T16:17:21;115.93;;;42.13;;
73337;SDS011;61575;49.908;35.556;2024-01-06T16:20:23;38.63;;;16.25;;
73337;SDS011;61575;49.908;35.556;2024-01-06T16:23:25;41.97;;;18.03;;
73337;SDS011;61575;49.908;35.556;2024-01-06T16:26:27;32.20;;;14.17;;
73337;SDS011;61575;49.908;35.556;2024-01-06T16:29:29;40.13;;;17.20;;
73337;SDS011;61575;49.908;35.556;2024-01-06T16:32:31;30.23;;;13.60;;
73337;SDS011;61575;49.908;35.556;2024-01-06T16:35:34;29.75;;;13.10;;
73337;SDS011;61575;49.908;35.556;2024-01-06T16:38:36;29.05;;;12.93;;
73337;SDS011;61575;49.908;35.556;2024-01-06T16:41:38;38.67;;;14.57;;
73337;SDS011;61575;49.908;35.556;2024-01-06T16:44:40;31.00;;;13.77;;
73337;SDS011;61575;49.908;35.556;2024-01-06T16:47:42;26.95;;;12.82;;
73337;SDS011;61575;49.908;35.556;2024-01-06T16:50:47;25.98;;;11.80;;
73337;SDS011;61575;49.908;35.556;2024-01-06T16:53:49;26.30;;;11.60;;
73337;SDS011;61575;49.908;35.556;2024-01-06T16:56:51;28.93;;;13.13;;
73337;SDS011;61575;49.908;35.556;2024-01-06T16:59:54;42.30;;;17.35;;
73337;SDS011;61575;49.908;35.556;2024-01-06T17:02:56;34.78;;;14.30;;
73337;SDS011;61575;49.908;35.556;2024-01-06T17:05:58;28.77;;;13.43;;
73337;SDS011;61575;49.908;35.556;2024-01-06T17:09:01;44.88;;;21.67;;
73337;SDS011;61575;49.908;35.556;2024-01-06T17:12:03;32.33;;;14.25;;
73337;SDS011;61575;49.908;35.556;2024-01-06T17:15:05;32.67;;;14.80;;
73337;SDS011;61575;49.908;35.556;2024-01-06T17:18:09;36.05;;;15.85;;
73337;SDS011;61575;49.908;35.556;2024-01-06T17:21:12;32.85;;;15.65;;
73337;SDS011;61575;49.908;35.556;2024-01-06T17:24:16;32.38;;;14.40;;
73337;SDS011;61575;49.908;35.556;2024-01-06T17:27:18;30.83;;;13.77;;
73337;SDS011;61575;49.908;35.556;2024-01-06T17:30:21;30.00;;;13.57;;
73337;SDS011;61575;49.908;35.556;2024-01-06T17:33:23;30.60;;;12.40;;
73337;SDS011;61575;49.908;35.556;2024-01-06T17:36:25;29.73;;;14.05;;
73337;SDS011;61575;49.908;35.556;2024-01-06T17:39:27;24.30;;;12.07;;
73337;SDS011;61575;49.908;35.556;2024-01-06T17:42:29;20.05;;;10.45;;
73337;SDS011;61575;49.908;35.556;2024-01-06T17:45:31;23.75;;;10.35;;
73337;SDS011;61575;49.908;35.556;2024-01-06T17:48:34;21.77;;;10.27;;
73337;SDS011;61575;49.908;35.556;2024-01-06T17:51:36;21.77;;;10.63;;
73337;SDS011;61575;49.908;35.556;2024-01-06T17:54:39;23.17;;;10.60;;
73337;SDS011;61575;49.908;35.556;2024-01-06T17:57:41;25.35;;;10.07;;
73337;SDS011;61575;49.908;35.556;2024-01-06T18:00:44;27.38;;;12.07;;
73337;SDS011;61575;49.908;35.556;2024-01-06T18:03:46;26.48;;;12.45;;